Latest Weather Observations for Nowra

IDN60801

Issued at 4:02 pm EDT Tuesday 24 January 2017 (issued every 30 minutes, with the page automatically refreshed every 10 minutes)

About weather observations | Map of weather stations | Latest weather observations for NSW | Other Formats
Station Details ID: 068072 Name: NOWRA RAN AIR STATION AWS Lat: -34.95 Lon: 150.54 Height: 109.0 m
Data from the previous 72 hours. | See also: Recent months at Nowra
Date/Time
EDT
Temp
°C
App
Temp
°C
Dew
Point
°C
Rel
Hum
%
Delta-T
°C
Wind Press
QNH
hPa
Press
MSL
hPa
Rain since
9am
mm
Dir  Spd
km/h
Gust
km/h
Spd
kts
Gust
kts
24/03:43pm 21.4 22.1 20.4 94 0.6 SSE 17 24 9 13 1012.5 1012.1 1.0
24/03:30pm 21.8 19.5 19.4 86 1.5 SSE 30 46 16 25 1012.1 1011.7 0.2
24/03:00pm 23.6 18.8 18.3 72 3.3 SSE 41 54 22 29 1010.5 1010.1 0.0
24/02:30pm 27.1 21.7 17.0 54 6.3 SSW 41 67 22 36 1008.8 1008.4 0.0
24/02:26pm 32.2 28.9 16.1 38 10.1 WSW 28 67 15 36 1008.0 1007.6 0.0
24/02:00pm 36.3 34.3 16.5 31 12.7 WSW 22 33 12 18 1007.4 1007.0 0.0
24/01:30pm 34.9 32.6 18.5 38 10.8 WSW 28 39 15 21 1007.3 1006.9 0.0
24/01:00pm 34.0 35.1 19.6 42 9.6 WNW 13 24 7 13 1007.2 1006.8 0.0
24/12:30pm 33.8 34.4 20.2 44 9.1 WNW 17 26 9 14 1007.3 1006.9 0.0
24/12:00pm 33.0 32.4 20.5 47 8.4 W 24 35 13 19 1007.3 1006.9 0.0
24/11:30am 31.9 30.7 20.8 51 7.4 WNW 28 43 15 23 1007.0 1006.6 0.0
24/11:00am 31.2 29.1 20.5 53 7.2 NW 32 46 17 25 1006.1 1005.7 0.0
24/10:30am 31.4 29.2 20.4 52 7.3 NW 32 48 17 26 1005.8 1005.3 0.0
24/10:00am 31.7 29.9 20.3 50 7.6 NW 30 46 16 25 1005.8 1005.3 0.0
24/09:30am 31.8 31.2 19.8 49 7.9 WNW 22 37 12 20 1006.2 1005.8 0.0
24/09:00am 31.3 30.1 19.3 49 7.9 WNW 24 39 13 21 1006.2 1005.8 0.0
24/08:30am 32.2 29.3 18.8 45 8.8 WNW 32 54 17 29 1006.1 1005.7 0.0
24/08:00am 32.5 29.3 17.2 40 9.8 NW 30 41 16 22 1005.9 1005.4 0.0
24/07:30am 32.7 29.2 16.5 37 10.3 NW 30 50 16 27 1005.4 1004.9 0.0
24/07:00am 32.2 29.2 16.9 40 9.8 NW 28 43 15 23 1005.1 1004.6 0.0
24/06:30am 32.0 28.2 16.7 40 9.7 NW 32 44 17 24 1004.7 1004.2 0.0
24/06:00am 31.8 28.7 16.5 39 9.7 NW 28 44 15 24 1004.4 1003.9 0.0
24/05:48am 32.0 29.0 16.7 40 9.7 NW 28 46 15 25 1004.4 1003.9 0.0
24/05:30am 31.7 29.3 16.4 39 9.6 NW 24 37 13 20 1004.2 1003.7 0.0
24/05:00am 31.0 29.4 16.6 42 9.1 NW 20 39 11 21 1003.8 1003.3 0.0
24/04:30am 28.0 28.3 17.8 54 6.5 NW 13 17 7 9 1003.7 1003.2 0.0
24/04:00am 23.2 26.3 19.6 80 2.3 NNW 2 9 1 5 1003.8 1003.3 0.0
24/03:30am 23.4 27.1 20.0 81 2.2 CALM 0 0 0 0 1004.1 1003.6 0.0
24/03:00am 23.1 25.8 19.5 80 2.3 W 4 9 2 5 1004.2 1003.7 0.0
24/02:30am 23.5 26.8 19.2 77 2.8 CALM 0 0 0 0 1004.5 1004.0 0.0
24/02:00am 23.2 25.9 19.4 79 2.4 SSW 4 7 2 4 1005.0 1004.5 0.0
24/01:30am 23.8 26.2 18.9 74 3.1 SE 4 7 2 4 1005.4 1004.9 0.0
24/01:00am 24.0 26.0 19.1 74 3.1 SE 7 9 4 5 1005.8 1005.3 0.0
24/12:30am 24.7 28.2 19.5 73 3.4 CALM 0 0 0 0 1006.1 1005.7 0.0
24/12:00am 24.6 26.8 19.2 72 3.5 SSW 6 7 3 4 1006.5 1006.1 0.0
 
Date/Time
EDT
Temp
°C
App
Temp
°C
Dew
Point
°C
Rel
Hum
%
Delta-T
°C
Wind Press
QNH
hPa
Press
MSL
hPa
Rain since
9am
mm
Dir  Spd
km/h
Gust
km/h
Spd
kts
Gust
kts
23/11:30pm 24.9 26.9 19.1 70 3.7 SE 7 15 4 8 1006.8 1006.4 0.0
23/11:00pm 25.2 28.3 19.6 71 3.6 WSW 2 7 1 4 1007.1 1006.7 0.0
23/10:30pm 25.5 28.9 19.4 69 3.9 CALM 0 0 0 0 1007.3 1006.9 0.0
23/10:00pm 25.5 28.8 19.2 68 4.1 CALM 0 0 0 0 1007.4 1007.0 0.0
23/09:30pm 25.6 28.1 19.0 67 4.2 SSW 4 7 2 4 1007.3 1006.9 0.0
23/09:00pm 25.5 27.4 18.9 67 4.2 SE 7 9 4 5 1007.2 1006.8 0.0
23/08:30pm 26.1 27.6 19.0 65 4.6 ESE 9 13 5 7 1007.0 1006.6 0.0
23/08:00pm 25.9 27.5 19.1 66 4.4 S 9 13 5 7 1006.6 1006.2 0.0
23/07:30pm 26.4 27.5 18.8 63 4.9 SSE 11 13 6 7 1006.2 1005.8 0.0
23/07:00pm 27.2 27.9 18.8 60 5.4 ESE 13 15 7 8 1005.7 1005.2 0.0
23/06:30pm 28.4 28.2 18.5 55 6.4 SE 17 20 9 11 1005.5 1005.0 0.0
23/06:00pm 30.0 29.6 18.1 49 7.7 ESE 17 22 9 12 1005.4 1004.9 0.0
23/05:30pm 31.4 32.1 19.7 49 7.7 E 15 20 8 11 1005.3 1004.8 0.0
23/05:00pm 30.9 30.7 18.6 48 8.0 E 17 26 9 14 1005.8 1005.3 0.0
23/04:30pm 31.3 30.6 18.6 46 8.3 E 20 30 11 16 1006.1 1005.7 0.0
23/04:00pm 30.6 29.9 18.3 47 8.0 E 19 24 10 13 1006.8 1006.4 0.0
23/03:30pm 31.5 31.2 19.5 49 7.9 ESE 20 26 11 14 1007.3 1006.9 0.0
23/03:00pm 31.3 30.4 18.3 46 8.4 E 20 28 11 15 1007.6 1007.2 0.0
23/02:30pm 30.3 29.5 18.4 49 7.7 E 20 26 11 14 1008.0 1007.6 0.0
23/02:00pm 31.4 30.7 18.7 46 8.3 E 20 26 11 14 1008.5 1008.1 0.0
23/01:30pm 31.5 29.6 18.5 46 8.4 ESE 26 30 14 16 1008.9 1008.5 0.0
23/01:00pm 31.5 30.5 18.8 46 8.3 E 22 28 12 15 1009.6 1009.2 0.0
23/12:30pm 31.3 30.4 18.3 46 8.4 E 20 28 11 15 1010.1 1009.7 0.0
23/12:00pm 31.3 31.2 16.1 40 9.5 ENE 11 17 6 9 1010.6 1010.2 0.0
23/11:30am 29.3 30.0 16.1 44 8.2 ENE 7 15 4 8 1011.1 1010.7 0.0
23/11:00am 27.8 28.2 16.4 50 7.1 ENE 9 13 5 7 1011.5 1011.1 0.0
23/10:30am 26.6 27.0 16.2 52 6.4 N 9 13 5 7 1012.1 1011.7 0.0
23/10:00am 25.2 25.8 16.9 60 5.2 NNW 9 15 5 8 1012.6 1012.2 0.0
23/09:30am 23.9 24.9 16.4 63 4.6 NW 6 11 3 6 1013.0 1012.5 0.0
23/09:00am 22.6 23.4 16.4 68 3.8 NW 7 11 4 6 1013.2 1012.7 0.0
23/08:30am 22.1 22.6 16.6 71 3.4 NW 9 13 5 7 1013.4 1012.9 0.0
23/08:00am 20.6 21.0 16.4 77 2.5 WNW 9 13 5 7 1013.3 1012.8 0.0
23/07:30am 19.6 20.0 16.4 82 1.9 NW 9 11 5 6 1013.0 1012.5 0.0
23/07:00am 18.1 19.3 16.8 92 0.8 NW 6 9 3 5 1013.1 1012.6 0.0
23/06:30am 16.6 17.4 16.4 99 0.1 WNW 7 9 4 5 1013.0 1012.5 0.0
23/06:00am 15.8 15.8 14.3 91 0.9 WNW 7 9 4 5 1012.9 1012.4 0.0
23/05:30am 16.4 18.1 16.1 98 0.2 W 2 9 1 5 1012.8 1012.3 0.0
23/05:00am 16.7 18.9 16.4 98 0.2 CALM 0 0 0 0 1012.6 1012.2 0.0
23/04:30am 15.9 17.6 15.1 95 0.5 CALM 0 0 0 0 1012.8 1012.3 0.0
23/04:00am 16.9 18.0 16.6 98 0.2 WSW 6 7 3 4 1012.9 1012.4 0.0
23/03:30am 16.5 18.4 15.7 95 0.5 CALM 0 0 0 0 1013.0 1012.5 0.0
23/03:00am 16.5 18.4 15.7 95 0.5 CALM 0 0 0 0 1013.1 1012.6 0.0
23/02:30am 16.3 18.0 15.3 94 0.6 CALM 0 0 0 0 1013.4 1012.9 0.0
23/02:00am 16.5 17.1 15.2 92 0.8 W 6 7 3 4 1013.8 1013.3 0.0
23/01:30am 16.9 18.6 15.2 90 1.0 CALM 0 0 0 0 1014.0 1013.5 0.0
23/01:00am 17.3 19.2 15.8 91 0.9 CALM 0 0 0 0 1014.5 1014.1 0.0
23/12:30am 17.4 18.1 15.6 89 1.1 WSW 6 9 3 5 1014.8 1014.4 0.0
23/12:00am 18.0 18.8 16.3 90 1.0 WSW 7 9 4 5 1014.9 1014.5 0.0
 
Date/Time
EDT
Temp
°C
App
Temp
°C
Dew
Point
°C
Rel
Hum
%
Delta-T
°C
Wind Press
QNH
hPa
Press
MSL
hPa
Rain since
9am
mm
Dir  Spd
km/h
Gust
km/h
Spd
kts
Gust
kts
22/11:30pm 17.8 19.3 15.6 87 1.3 SW 2 6 1 3 1014.9 1014.5 0.0
22/11:00pm 18.3 18.8 15.6 84 1.6 SSW 7 7 4 4 1014.9 1014.5 0.0
22/10:30pm 19.8 21.8 15.9 78 2.3 CALM 0 0 0 0 1015.0 1014.6 0.0
22/10:00pm 20.2 22.1 15.8 76 2.6 CALM 0 0 0 0 1014.9 1014.5 0.0
22/09:30pm 20.7 20.4 15.5 72 3.1 NE 11 15 6 8 1014.7 1014.3 0.0
22/09:00pm 21.3 20.7 15.6 70 3.4 ENE 13 15 7 8 1014.4 1014.0 0.0
22/08:30pm 21.9 21.2 15.5 67 3.8 ENE 13 17 7 9 1014.3 1013.9 0.0
22/08:00pm 22.4 20.6 15.5 65 4.1 ENE 19 28 10 15 1014.0 1013.5 0.0
22/07:30pm 23.0 19.4 15.3 62 4.6 ENE 28 35 15 19 1013.9 1013.4 0.0
22/07:00pm 23.6 20.6 15.9 62 4.7 ENE 26 33 14 18 1013.7 1013.2 0.0
22/06:30pm 24.2 21.0 15.4 58 5.3 ENE 26 39 14 21 1013.6 1013.1 0.0
22/06:00pm 24.4 20.9 15.6 58 5.3 ENE 28 37 15 20 1013.6 1013.1 0.0
22/05:30pm 24.7 20.5 15.6 57 5.5 ENE 32 41 17 22 1013.8 1013.3 0.0
22/05:00pm 24.9 20.3 14.7 53 6.1 ENE 32 43 17 23 1014.2 1013.7 0.0
22/04:30pm 25.3 21.4 14.4 50 6.5 E 28 37 15 20 1014.3 1013.9 0.0
22/04:00pm 25.1 21.5 14.3 51 6.4 ENE 26 33 14 18 1014.6 1014.2 0.0
22/03:30pm 25.1 22.3 14.3 51 6.4 E 22 32 12 17 1014.8 1014.4 0.0
22/03:00pm 24.8 21.5 14.0 51 6.4 ENE 24 30 13 16 1015.0 1014.6 0.0
22/02:30pm 25.7 23.1 13.9 48 7.0 ENE 20 39 11 21 1015.4 1015.0 0.0
22/02:00pm 25.2 22.2 13.7 49 6.8 ENE 22 32 12 17 1015.6 1015.2 0.0
22/01:30pm 24.4 21.2 13.0 49 6.6 ENE 22 30 12 16 1015.8 1015.4 0.0
22/01:00pm 25.1 22.9 14.3 51 6.4 E 19 26 10 14 1015.9 1015.5 0.0
22/12:30pm 25.1 22.9 13.3 48 6.9 ENE 17 26 9 14 1016.3 1015.9 0.0
22/12:00pm 24.3 22.6 13.5 51 6.3 E 15 24 8 13 1016.6 1016.2 0.0
22/11:30am 23.5 22.5 12.2 49 6.5 ENE 9 20 5 11 1016.9 1016.5 0.0
22/11:00am 23.4 21.5 11.8 48 6.6 E 13 24 7 13 1017.0 1016.6 0.0
22/10:30am 23.9 22.3 12.8 49 6.4 E 13 19 7 10 1017.3 1016.9 0.0
22/10:00am 22.6 21.9 12.0 51 6.0 ESE 7 17 4 9 1017.5 1017.1 0.0
22/09:30am 21.2 21.1 12.1 56 5.1 NE 4 9 2 5 1017.7 1017.3 0.0
22/09:00am 20.6 20.1 12.1 58 4.8 ESE 6 11 3 6 1017.8 1017.4 0.0
22/08:30am 19.7 20.8 13.4 67 3.6 CALM 0 0 0 0 1017.9 1017.5 0.0
22/08:00am 18.7 18.6 13.3 71 3.1 W 6 7 3 4 1017.8 1017.4 0.0
22/07:30am 17.8 18.3 14.1 79 2.1 WSW 4 7 2 4 1017.6 1017.2 0.0
22/07:00am 16.6 16.4 14.8 89 1.0 W 9 11 5 6 1017.4 1017.0 0.0
22/06:30am 15.1 14.7 14.0 93 0.6 W 9 11 5 6 1017.2 1016.8 0.0
22/06:00am 14.9 14.6 13.3 90 0.9 W 7 9 4 5 1017.0 1016.6 0.0
22/05:30am 15.5 15.8 14.4 93 0.6 WSW 6 7 3 4 1017.0 1016.6 0.0
22/05:00am 15.2 15.3 14.4 95 0.5 W 7 9 4 5 1016.8 1016.4 0.0
22/04:30am 14.9 16.0 13.4 91 0.8 CALM 0 0 0 0 1016.6 1016.2 0.0
22/04:00am 14.9 16.0 13.4 91 0.8 CALM 0 0 0 0 1016.6 1016.2 0.0
22/03:30am 15.2 16.1 12.9 86 1.3 CALM 0 0 0 0 1016.7 1016.3 0.0
22/03:00am 16.2 17.2 13.3 83 1.6 CALM 0 0 0 0 1017.0 1016.6 0.0
22/02:30am 17.1 18.2 13.4 79 2.1 CALM 0 0 0 0 1017.1 1016.7 0.0
22/02:00am 17.9 19.0 13.6 76 2.4 CALM 0 0 0 0 1017.1 1016.7 0.0
22/01:30am 18.2 18.0 13.5 74 2.7 NW 7 7 4 4 1017.4 1017.0 0.0
22/01:00am 18.4 18.2 13.5 73 2.8 NNW 7 9 4 5 1017.6 1017.2 0.0
22/12:30am 18.5 19.6 13.4 72 2.9 CALM 0 0 0 0 1017.7 1017.3 0.0
22/12:00am 18.3 18.6 13.4 73 2.8 N 4 7 2 4 1017.6 1017.2 0.0
 
Date/Time
EDT
Temp
°C
App
Temp
°C
Dew
Point
°C
Rel
Hum
%
Delta-T
°C
Wind Press
QNH
hPa
Press
MSL
hPa
Rain since
9am
mm
Dir  Spd
km/h
Gust
km/h
Spd
kts
Gust
kts
21/11:30pm 18.6 18.6 13.5 72 2.9 E 6 7 3 4 1017.5 1017.1 0.0
21/11:00pm 18.6 19.8 13.7 73 2.8 CALM 0 0 0 0 1017.5 1017.1 0.0
21/10:30pm 18.6 18.6 13.7 73 2.8 ESE 6 9 3 5 1017.4 1017.0 0.0
21/10:00pm 18.7 18.1 13.6 72 2.9 ESE 9 13 5 7 1017.3 1016.9 0.0
21/09:30pm 18.6 18.0 13.5 72 2.9 ESE 9 11 5 6 1017.2 1016.8 0.0
21/09:00pm 18.6 17.5 13.0 70 3.2 ESE 11 13 6 7 1017.0 1016.6 0.0
21/08:30pm 19.3 17.4 13.0 67 3.6 ESE 15 17 8 9 1016.7 1016.3 0.0
21/08:00pm 19.5 16.8 13.0 66 3.7 ESE 19 22 10 12 1016.2 1015.8 0.0
21/07:30pm 19.9 17.1 13.1 65 3.9 ESE 20 26 11 14 1015.6 1015.2 0.0
21/07:00pm 20.1 16.8 12.8 63 4.1 ESE 22 30 12 16 1014.9 1014.5 0.0
21/06:30pm 20.4 17.4 12.4 60 4.5 ESE 20 28 11 15 1014.3 1013.9 0.0
21/06:00pm 21.1 17.3 12.5 58 4.9 ESE 24 32 13 17 1013.7 1013.2 0.0
21/05:30pm 22.0 18.2 12.3 54 5.5 ESE 24 32 13 17 1013.4 1012.9 0.0
21/05:00pm 22.6 18.6 11.7 50 6.1 ESE 24 32 13 17 1012.9 1012.4 0.0
21/04:30pm 23.0 18.6 11.7 49 6.4 E 26 35 14 19 1012.5 1012.1 0.0

Other Formats:

Comma delimited format used in spreadsheet applications
http://www.bom.gov.au/fwo/IDN60801/IDN60801.94750.axf

JavaScript Object Notation format (JSON) in row-major order
http://www.bom.gov.au/fwo/IDN60801/IDN60801.94750.json